createdAt,value
2023-09-09T00:00:34.973Z,40.28
2023-09-09T00:01:35.065Z,39.64
2023-09-09T00:02:34.991Z,40.12
2023-09-09T00:03:35.028Z,40.61
2023-09-09T00:04:35.092Z,39.32
2023-09-09T00:05:34.961Z,39.96
2023-09-09T00:06:34.990Z,39.96
2023-09-09T00:07:34.965Z,39.96
2023-09-09T00:08:34.926Z,42.06
2023-09-09T00:09:35.030Z,41.25
2023-09-09T00:10:34.953Z,40.12
2023-09-09T00:11:34.925Z,38.99
2023-09-09T00:12:34.960Z,38.19
2023-09-09T00:13:35.325Z,39.80
2023-09-09T00:14:34.850Z,39.80
2023-09-09T00:15:35.083Z,39.80
2023-09-09T00:16:34.851Z,38.99
2023-09-09T00:17:34.873Z,38.03
2023-09-09T00:18:34.818Z,38.83
2023-09-09T00:19:34.827Z,38.83
2023-09-09T00:20:34.834Z,39.64
2023-09-09T00:21:34.786Z,38.03
2023-09-09T00:22:34.789Z,38.83
2023-09-09T00:23:35.033Z,38.83
2023-09-09T00:24:34.812Z,39.32
2023-09-09T00:25:34.768Z,39.48
2023-09-09T00:26:34.749Z,40.28
2023-09-09T00:27:34.744Z,39.80
2023-09-09T00:28:34.791Z,40.28
2023-09-09T00:29:34.767Z,40.44
2023-09-09T00:30:34.714Z,41.57
2023-09-09T00:31:34.791Z,49.31
2023-09-09T00:32:34.728Z,41.89
2023-09-09T00:33:34.997Z,41.73
2023-09-09T00:34:34.750Z,42.86
2023-09-09T00:35:34.699Z,41.57
2023-09-09T00:36:34.679Z,39.80
2023-09-09T00:37:34.668Z,39.16
2023-09-09T00:38:34.673Z,40.28
2023-09-09T00:39:35.675Z,40.44
2023-09-09T00:40:34.693Z,41.41
2023-09-09T00:41:34.642Z,42.38
2023-09-09T00:42:34.631Z,39.80
2023-09-09T00:43:34.726Z,39.64
2023-09-09T00:44:34.622Z,39.32
2023-09-09T00:45:34.612Z,39.80
2023-09-09T00:46:34.707Z,41.25
2023-09-09T00:47:34.726Z,41.25
2023-09-09T00:48:34.624Z,40.28
2023-09-09T00:49:34.565Z,40.77
2023-09-09T00:50:34.564Z,39.80
2023-09-09T00:51:34.555Z,39.64
2023-09-09T00:52:34.569Z,39.80
2023-09-09T00:53:34.689Z,40.12
2023-09-09T00:54:34.544Z,39.96
2023-09-09T00:55:34.526Z,39.32
2023-09-09T00:56:34.528Z,39.80
2023-09-09T00:57:34.545Z,39.32
2023-09-09T00:58:34.535Z,39.96
2023-09-09T00:59:34.503Z,38.19
2023-09-09T01:00:34.491Z,38.35
2023-09-09T01:01:34.543Z,39.48
2023-09-09T01:02:34.578Z,37.54
2023-09-09T01:03:34.624Z,39.32
2023-09-09T01:04:34.477Z,38.03
2023-09-09T01:05:34.456Z,39.16
2023-09-09T01:06:34.458Z,39.16
2023-09-09T01:07:34.518Z,39.32
2023-09-09T01:08:34.425Z,39.64
2023-09-09T01:09:34.413Z,39.48
2023-09-09T01:10:34.417Z,39.16
2023-09-09T01:11:34.444Z,41.57
2023-09-09T01:12:34.435Z,39.16
2023-09-09T01:13:36.379Z,39.32
2023-09-09T01:14:34.419Z,39.48
2023-09-09T01:15:34.397Z,38.19
2023-09-09T01:16:34.425Z,38.51
2023-09-09T01:17:34.479Z,38.03
2023-09-09T01:18:34.351Z,37.87
2023-09-09T01:19:34.345Z,38.67
2023-09-09T01:20:34.339Z,39.16
2023-09-09T01:21:34.427Z,38.67
2023-09-09T01:22:34.324Z,37.87
2023-09-09T01:23:34.353Z,38.83
2023-09-09T01:24:34.304Z,38.99
2023-09-09T01:25:34.328Z,39.32
2023-09-09T01:26:34.424Z,38.83
2023-09-09T01:27:34.346Z,39.64
2023-09-09T01:28:34.279Z,39.32
2023-09-09T01:29:34.283Z,39.80
2023-09-09T01:30:34.286Z,39.80
2023-09-09T01:31:34.298Z,39.96
2023-09-09T01:32:34.308Z,39.96
2023-09-09T01:33:34.295Z,39.32
2023-09-09T01:34:34.229Z,38.35
2023-09-09T01:35:34.242Z,38.19
2023-09-09T01:36:34.224Z,40.12
2023-09-09T01:37:34.416Z,40.28
2023-09-09T01:38:34.206Z,39.32
2023-09-09T01:39:34.229Z,39.32
2023-09-09T01:40:34.215Z,38.99
2023-09-09T01:41:34.182Z,38.83
2023-09-09T01:42:34.222Z,38.67
2023-09-09T01:43:34.187Z,38.51
2023-09-09T01:44:34.179Z,38.19
2023-09-09T01:45:34.295Z,38.03
2023-09-09T01:46:34.238Z,38.19
2023-09-09T01:47:34.152Z,37.38
2023-09-09T01:48:34.188Z,37.87
2023-09-09T01:49:34.204Z,38.19
2023-09-09T01:50:34.099Z,38.83
2023-09-09T01:51:34.088Z,38.67
2023-09-09T01:52:34.084Z,38.35
2023-09-09T01:53:34.101Z,39.16
2023-09-09T01:54:34.091Z,38.83
2023-09-09T01:55:34.076Z,40.44
2023-09-09T01:56:34.047Z,40.93
2023-09-09T01:57:34.038Z,39.80
2023-09-09T01:58:34.069Z,39.32
2023-09-09T01:59:34.098Z,38.67
2023-09-09T02:00:34.021Z,38.51
2023-09-09T02:01:34.090Z,37.87
2023-09-09T02:02:34.109Z,38.67
2023-09-09T02:03:34.258Z,38.19
2023-09-09T02:04:33.991Z,38.67
2023-09-09T02:05:33.976Z,39.16
2023-09-09T02:06:33.982Z,38.83
2023-09-09T02:07:33.964Z,38.99
2023-09-09T02:08:34.005Z,39.32
2023-09-09T02:09:33.958Z,38.19
2023-09-09T02:10:33.945Z,38.35
2023-09-09T02:11:33.928Z,38.35
2023-09-09T02:12:33.940Z,38.67
2023-09-09T02:13:34.017Z,38.03
2023-09-09T02:14:33.909Z,38.99
2023-09-09T02:15:33.944Z,39.16
2023-09-09T02:16:33.987Z,39.16
2023-09-09T02:17:33.962Z,39.48
2023-09-09T02:18:33.920Z,38.51
2023-09-09T02:19:33.900Z,38.03
2023-09-09T02:20:33.871Z,39.16
2023-09-09T02:21:33.857Z,38.03
2023-09-09T02:22:33.888Z,37.87
2023-09-09T02:23:33.869Z,38.83
2023-09-09T02:24:33.834Z,38.51
2023-09-09T02:25:33.874Z,37.87
2023-09-09T02:26:33.825Z,37.71
2023-09-09T02:27:33.846Z,38.67
2023-09-09T02:28:33.800Z,39.32
2023-09-09T02:29:33.874Z,38.19
2023-09-09T02:30:33.786Z,38.51
2023-09-09T02:31:33.856Z,39.16
2023-09-09T02:32:33.877Z,41.89
2023-09-09T02:33:33.815Z,38.99
2023-09-09T02:34:33.751Z,39.32
2023-09-09T02:35:33.768Z,39.96
2023-09-09T02:36:33.769Z,39.96
2023-09-09T02:37:33.728Z,40.44
2023-09-09T02:38:33.745Z,39.96
2023-09-09T02:39:33.747Z,38.83
2023-09-09T02:40:33.700Z,39.16
2023-09-09T02:41:33.729Z,38.83
2023-09-09T02:42:33.691Z,38.35
2023-09-09T02:43:33.679Z,37.71
2023-09-09T02:44:33.699Z,38.83
2023-09-09T02:45:33.654Z,39.80
2023-09-09T02:46:34.803Z,39.16
2023-09-09T02:47:33.646Z,38.99
2023-09-09T02:48:33.648Z,38.51
2023-09-09T02:49:33.683Z,38.99
2023-09-09T02:50:33.653Z,38.51
2023-09-09T02:51:33.646Z,39.16
2023-09-09T02:52:33.656Z,38.51
2023-09-09T02:53:33.620Z,38.67
2023-09-09T02:54:33.600Z,39.80
2023-09-09T02:55:33.681Z,40.12
2023-09-09T02:56:33.587Z,41.57
2023-09-09T02:57:33.572Z,39.96
2023-09-09T02:58:33.606Z,38.99
2023-09-09T02:59:33.557Z,38.99
2023-09-09T03:00:33.584Z,38.51
2023-09-09T03:01:33.571Z,38.35
2023-09-09T03:02:33.716Z,38.19
2023-09-09T03:03:33.780Z,38.51
2023-09-09T03:04:33.611Z,38.51
2023-09-09T03:05:33.540Z,38.51
2023-09-09T03:06:33.508Z,38.99
2023-09-09T03:07:33.515Z,38.51
2023-09-09T03:08:33.494Z,38.99
2023-09-09T03:09:33.527Z,39.16
2023-09-09T03:10:33.520Z,38.83
2023-09-09T03:11:33.492Z,39.16
2023-09-09T03:12:33.506Z,38.67
2023-09-09T03:13:33.456Z,39.16
2023-09-09T03:14:33.474Z,38.99
2023-09-09T03:15:33.455Z,39.80
2023-09-09T03:16:33.457Z,39.32
2023-09-09T03:17:33.465Z,39.80
2023-09-09T03:18:33.594Z,38.83
2023-09-09T03:19:33.445Z,40.77
2023-09-09T03:20:33.444Z,45.60
2023-09-09T03:21:33.393Z,39.48
2023-09-09T03:22:33.426Z,39.48
2023-09-09T03:23:33.435Z,38.99
2023-09-09T03:24:33.377Z,39.16
2023-09-09T03:25:33.445Z,39.80
2023-09-09T03:26:33.402Z,42.06
2023-09-09T03:27:33.346Z,39.64
2023-09-09T03:28:33.380Z,41.57
2023-09-09T03:29:33.339Z,39.32
2023-09-09T03:30:33.326Z,39.96
2023-09-09T03:31:33.328Z,39.96
2023-09-09T03:32:33.356Z,39.96
2023-09-09T03:33:33.412Z,40.12
2023-09-09T03:34:33.296Z,39.96
2023-09-09T03:35:33.291Z,39.96
2023-09-09T03:36:33.274Z,39.96
2023-09-09T03:37:33.321Z,40.77
2023-09-09T03:38:33.288Z,39.32
2023-09-09T03:39:33.268Z,39.64
2023-09-09T03:40:33.254Z,40.28
2023-09-09T03:41:33.237Z,39.80
2023-09-09T03:42:33.266Z,42.22
2023-09-09T03:43:33.399Z,40.77
2023-09-09T03:44:33.210Z,39.32
2023-09-09T03:45:33.245Z,40.28
2023-09-09T03:46:33.273Z,39.48
2023-09-09T03:47:33.240Z,44.96
2023-09-09T03:48:33.206Z,42.22
2023-09-09T03:49:33.170Z,40.28
2023-09-09T03:50:33.163Z,40.44
2023-09-09T03:51:33.157Z,46.41
2023-09-09T03:52:33.340Z,40.12
2023-09-09T03:53:33.167Z,39.48
2023-09-09T03:54:33.139Z,40.61
2023-09-09T03:55:33.149Z,38.99
2023-09-09T03:56:33.145Z,38.51
2023-09-09T03:57:33.135Z,39.64
2023-09-09T03:58:33.102Z,40.93
2023-09-09T03:59:33.214Z,40.77
2023-09-09T04:00:33.145Z,39.80
2023-09-09T04:01:33.206Z,38.83
2023-09-09T04:02:33.093Z,39.96
2023-09-09T04:03:33.275Z,39.16
2023-09-09T04:04:33.158Z,38.83
2023-09-09T04:05:33.045Z,39.96
2023-09-09T04:06:34.074Z,39.16
2023-09-09T04:07:33.061Z,40.12
2023-09-09T04:08:33.071Z,40.12
2023-09-09T04:09:33.016Z,39.32
2023-09-09T04:10:33.050Z,39.32
2023-09-09T04:11:33.028Z,41.41
2023-09-09T04:12:32.988Z,40.93
2023-09-09T04:13:34.086Z,39.48
2023-09-09T04:14:32.979Z,40.77
2023-09-09T04:15:33.029Z,39.16
2023-09-09T04:16:33.031Z,39.64
2023-09-09T04:17:33.054Z,39.96
2023-09-09T04:18:44.810Z,38.83
2023-09-09T04:19:34.937Z,39.96
2023-09-09T04:20:32.955Z,39.80
2023-09-09T04:21:32.932Z,39.80
2023-09-09T04:22:32.938Z,40.44
2023-09-09T04:23:32.915Z,39.64
2023-09-09T04:24:32.965Z,42.86
2023-09-09T04:25:32.933Z,38.35
2023-09-09T04:26:32.873Z,39.80
2023-09-09T04:27:32.922Z,39.80
2023-09-09T04:28:32.934Z,39.80
2023-09-09T04:29:32.904Z,40.12
2023-09-09T04:30:32.861Z,46.89
2023-09-09T04:31:32.840Z,40.93
2023-09-09T04:32:32.846Z,41.57
2023-09-09T04:33:32.849Z,40.77
2023-09-09T04:34:32.844Z,40.93
2023-09-09T04:35:32.822Z,39.80
2023-09-09T04:36:32.799Z,39.64
2023-09-09T04:37:32.796Z,39.48
2023-09-09T04:38:32.783Z,39.96
2023-09-09T04:39:32.816Z,39.48
2023-09-09T04:40:32.769Z,39.32
2023-09-09T04:41:32.774Z,40.44
2023-09-09T04:42:32.753Z,40.93
2023-09-09T04:43:32.787Z,39.96
2023-09-09T04:44:32.768Z,40.93
2023-09-09T04:45:32.870Z,39.48
2023-09-09T04:46:32.774Z,40.61
2023-09-09T04:47:32.757Z,39.32
2023-09-09T04:48:32.809Z,41.57
2023-09-09T04:49:32.738Z,38.83
2023-09-09T04:50:32.696Z,39.48
2023-09-09T04:51:32.686Z,40.61
2023-09-09T04:52:32.674Z,39.16
2023-09-09T04:53:32.710Z,39.64
2023-09-09T04:54:32.662Z,38.99
2023-09-09T04:55:32.750Z,38.35
2023-09-09T04:56:32.645Z,40.12
2023-09-09T04:57:32.654Z,39.48
2023-09-09T04:58:32.702Z,40.12
2023-09-09T04:59:32.621Z,39.32
2023-09-09T05:00:32.620Z,40.28
2023-09-09T05:01:32.692Z,39.48
2023-09-09T05:02:32.751Z,39.16
2023-09-09T05:03:32.652Z,39.80
2023-09-09T05:04:32.585Z,40.77
2023-09-09T05:05:32.574Z,43.18
2023-09-09T05:06:32.578Z,41.41
2023-09-09T05:07:32.602Z,40.44
2023-09-09T05:08:32.555Z,40.77
2023-09-09T05:09:32.656Z,40.28
2023-09-09T05:10:32.552Z,39.64
2023-09-09T05:11:32.583Z,39.96
2023-09-09T05:12:32.588Z,41.41
2023-09-09T05:13:32.517Z,40.44
2023-09-09T05:14:32.519Z,40.12
2023-09-09T05:15:32.565Z,41.89
2023-09-09T05:16:32.618Z,40.93
2023-09-09T05:17:32.512Z,39.96
2023-09-09T05:18:32.491Z,40.44
2023-09-09T05:19:32.557Z,40.44
2023-09-09T05:20:32.480Z,40.44
2023-09-09T05:21:32.492Z,40.28
2023-09-09T05:22:32.457Z,39.80
2023-09-09T05:23:32.443Z,39.32
2023-09-09T05:24:34.908Z,39.80
2023-09-09T05:25:32.432Z,40.12
2023-09-09T05:26:32.444Z,39.32
2023-09-09T05:27:32.430Z,39.96
2023-09-09T05:28:32.445Z,40.28
2023-09-09T05:29:32.415Z,41.89
2023-09-09T05:30:32.445Z,40.44
2023-09-09T05:31:34.518Z,40.93
2023-09-09T05:32:32.484Z,40.93
2023-09-09T05:33:32.449Z,41.09
2023-09-09T05:34:32.379Z,40.12
2023-09-09T05:35:32.386Z,41.57
2023-09-09T05:36:32.363Z,39.64
2023-09-09T05:37:32.367Z,40.44
2023-09-09T05:38:32.343Z,41.57
2023-09-09T05:39:32.329Z,41.41
2023-09-09T05:40:32.349Z,39.96
2023-09-09T05:41:32.327Z,42.22
2023-09-09T05:42:32.363Z,43.83
2023-09-09T05:43:32.332Z,36.74
2023-09-09T05:44:32.320Z,45.44
2023-09-09T05:45:32.349Z,42.06
2023-09-09T05:46:32.313Z,44.96
2023-09-09T05:47:32.304Z,43.02
2023-09-09T05:48:32.251Z,41.25
2023-09-09T05:49:39.384Z,42.38
2023-09-09T05:50:34.245Z,42.22
2023-09-09T05:51:32.226Z,42.86
2023-09-09T05:52:32.281Z,42.38
2023-09-09T05:53:32.317Z,41.57
2023-09-09T05:54:32.235Z,40.44
2023-09-09T05:55:32.268Z,42.54
2023-09-09T05:56:32.253Z,42.22
2023-09-09T05:57:32.183Z,46.08
2023-09-09T05:58:32.205Z,44.15
2023-09-09T05:59:32.210Z,43.02
2023-09-09T06:00:32.181Z,44.79
2023-09-09T06:01:32.179Z,46.57
2023-09-09T06:02:32.220Z,43.83
2023-09-09T06:03:32.247Z,42.06
2023-09-09T06:04:32.234Z,44.79
2023-09-09T06:05:32.140Z,44.63
2023-09-09T06:06:32.132Z,41.89
2023-09-09T06:07:32.116Z,42.70
2023-09-09T06:08:32.132Z,49.31
2023-09-09T06:09:32.096Z,43.02
2023-09-09T06:10:32.152Z,40.44
2023-09-09T06:11:32.145Z,41.89
2023-09-09T06:12:32.105Z,40.12
2023-09-09T06:13:32.102Z,41.89
2023-09-09T06:14:32.088Z,43.51
2023-09-09T06:15:32.064Z,40.61
2023-09-09T06:16:32.076Z,39.96
2023-09-09T06:17:32.119Z,43.18
2023-09-09T06:18:32.095Z,42.22
2023-09-09T06:19:32.034Z,40.93
2023-09-09T06:20:32.013Z,44.79
2023-09-09T06:21:32.017Z,40.12
2023-09-09T06:22:32.035Z,40.44
2023-09-09T06:23:31.994Z,48.34
2023-09-09T06:24:32.073Z,40.28
2023-09-09T06:25:31.965Z,40.77
2023-09-09T06:26:31.971Z,39.48
2023-09-09T06:27:31.996Z,41.41
2023-09-09T06:28:31.984Z,41.57
2023-09-09T06:29:32.054Z,44.15
2023-09-09T06:30:31.934Z,40.28
2023-09-09T06:31:32.066Z,38.51
2023-09-09T06:32:32.133Z,39.96
2023-09-09T06:33:31.919Z,39.16
2023-09-09T06:34:31.917Z,39.64
2023-09-09T06:35:31.935Z,39.96
2023-09-09T06:36:31.947Z,48.50
2023-09-09T06:37:31.891Z,45.60
2023-09-09T06:38:31.870Z,41.89
2023-09-09T06:39:31.868Z,43.99
2023-09-09T06:40:31.853Z,42.06
2023-09-09T06:41:31.884Z,45.12
2023-09-09T06:42:31.841Z,46.41
2023-09-09T06:43:31.847Z,43.51
2023-09-09T06:44:31.840Z,43.83
2023-09-09T06:45:31.902Z,42.38
2023-09-09T06:46:31.857Z,47.70
2023-09-09T06:47:31.857Z,41.09
2023-09-09T06:48:31.823Z,42.86
2023-09-09T06:49:31.789Z,42.06
2023-09-09T06:50:31.855Z,38.83
2023-09-09T06:51:31.781Z,42.06
2023-09-09T06:52:31.761Z,42.22
2023-09-09T06:53:31.829Z,41.57
2023-09-09T06:54:31.756Z,42.70
2023-09-09T06:55:31.822Z,41.25
2023-09-09T06:56:31.740Z,41.57
2023-09-09T06:57:31.723Z,43.18
2023-09-09T06:58:31.765Z,41.41
2023-09-09T06:59:31.717Z,43.99
2023-09-09T07:00:31.739Z,43.51
2023-09-09T07:01:31.698Z,47.05
2023-09-09T07:02:31.727Z,47.70
2023-09-09T07:03:32.684Z,47.05
2023-09-09T07:04:31.808Z,47.53
2023-09-09T07:05:31.822Z,42.38
2023-09-09T07:06:31.664Z,41.73
2023-09-09T07:07:40.807Z,42.38
2023-09-09T07:08:33.698Z,42.22
2023-09-09T07:09:31.670Z,45.44
2023-09-09T07:10:31.637Z,45.60
2023-09-09T07:11:31.622Z,47.86
2023-09-09T07:12:31.633Z,45.92
2023-09-09T07:13:31.605Z,43.34
2023-09-09T07:14:34.144Z,42.54
2023-09-09T07:15:32.614Z,44.79
2023-09-09T07:16:31.613Z,45.44
2023-09-09T07:17:31.630Z,44.79
2023-09-09T07:18:31.649Z,45.12
2023-09-09T07:19:31.586Z,43.34
2023-09-09T07:20:31.562Z,43.02
2023-09-09T07:21:31.563Z,44.96
2023-09-09T07:22:31.549Z,42.54
2023-09-09T07:23:31.626Z,47.21
2023-09-09T07:24:31.521Z,45.44
2023-09-09T07:25:31.602Z,45.12
2023-09-09T07:26:31.511Z,46.25
2023-09-09T07:27:31.503Z,46.57
2023-09-09T07:28:31.517Z,45.44
2023-09-09T07:29:31.545Z,46.41
2023-09-09T07:30:31.559Z,43.83
2023-09-09T07:31:31.508Z,46.25
2023-09-09T07:32:31.605Z,47.21
2023-09-09T07:33:31.520Z,47.70
2023-09-09T07:34:31.459Z,45.28
2023-09-09T07:35:31.440Z,47.70
2023-09-09T07:36:31.430Z,45.44
2023-09-09T07:37:31.490Z,46.08
2023-09-09T07:38:31.431Z,48.50
2023-09-09T07:39:31.451Z,47.05
2023-09-09T07:40:31.485Z,45.76
2023-09-09T07:41:31.398Z,48.02
2023-09-09T07:42:31.413Z,46.73
2023-09-09T07:43:31.398Z,45.92
2023-09-09T07:44:31.379Z,41.73
2023-09-09T07:45:32.068Z,42.38
2023-09-09T07:46:31.408Z,44.31
2023-09-09T07:47:31.388Z,46.08
2023-09-09T07:48:31.509Z,47.53
2023-09-09T07:49:31.340Z,47.37
2023-09-09T07:50:31.398Z,49.31
2023-09-09T07:51:31.358Z,45.28
2023-09-09T07:52:31.315Z,46.08
2023-09-09T07:53:31.299Z,43.67
2023-09-09T07:54:31.318Z,45.28
2023-09-09T07:55:32.499Z,43.18
2023-09-09T07:56:32.314Z,42.06
2023-09-09T07:57:31.285Z,44.15
2023-09-09T07:58:31.275Z,42.54
2023-09-09T07:59:31.283Z,45.28
2023-09-09T08:00:31.367Z,42.38
2023-09-09T08:01:31.347Z,47.70
2023-09-09T08:02:31.305Z,47.70
2023-09-09T08:03:32.306Z,45.28
2023-09-09T08:04:31.383Z,50.27
2023-09-09T08:05:31.276Z,50.11
2023-09-09T08:06:31.218Z,48.18
2023-09-09T08:07:31.301Z,49.15
2023-09-09T08:08:31.268Z,50.92
2023-09-09T08:09:31.192Z,46.08
2023-09-09T08:10:31.198Z,52.21
2023-09-09T08:11:31.218Z,44.15
2023-09-09T08:12:31.153Z,48.82
2023-09-09T08:13:31.149Z,45.60
2023-09-09T08:14:31.176Z,49.79
2023-09-09T08:15:40.223Z,48.98
2023-09-09T08:16:34.102Z,44.47
2023-09-09T08:17:32.196Z,46.08
2023-09-09T08:18:31.127Z,48.66
2023-09-09T08:19:31.161Z,46.57
2023-09-09T08:20:31.146Z,40.12
2023-09-09T08:21:31.090Z,46.89
2023-09-09T08:22:31.224Z,44.47
2023-09-09T08:23:31.079Z,43.02
2023-09-09T08:24:31.100Z,46.41
2023-09-09T08:25:31.061Z,41.89
2023-09-09T08:26:31.113Z,43.51
2023-09-09T08:27:31.078Z,45.60
2023-09-09T08:28:31.037Z,44.79
2023-09-09T08:29:31.051Z,43.34
2023-09-09T08:30:31.025Z,42.38
2023-09-09T08:31:31.106Z,47.53
2023-09-09T08:32:31.057Z,46.57
2023-09-09T08:33:31.019Z,44.79
2023-09-09T08:34:31.017Z,42.70
2023-09-09T08:35:31.001Z,43.51
2023-09-09T08:36:31.006Z,41.57
2023-09-09T08:37:30.997Z,47.37
2023-09-09T08:38:31.026Z,42.86
2023-09-09T08:39:31.034Z,40.93
2023-09-09T08:40:30.944Z,48.98
2023-09-09T08:41:31.073Z,45.44
2023-09-09T08:42:30.944Z,41.41
2023-09-09T08:43:30.956Z,44.79
2023-09-09T08:44:31.009Z,42.70
2023-09-09T08:45:30.913Z,43.34
2023-09-09T08:46:30.897Z,39.80
2023-09-09T08:47:31.021Z,45.60
2023-09-09T08:48:30.947Z,44.31
2023-09-09T08:49:30.925Z,42.38
2023-09-09T08:50:30.868Z,43.67
2023-09-09T08:51:30.850Z,44.79
2023-09-09T08:52:30.928Z,43.67
2023-09-09T08:53:30.870Z,44.79
2023-09-09T08:54:30.849Z,45.12
2023-09-09T08:55:30.857Z,43.51
2023-09-09T08:56:30.810Z,43.18
2023-09-09T08:57:30.914Z,46.08
2023-09-09T08:58:30.809Z,43.02
2023-09-09T08:59:30.793Z,42.54
2023-09-09T09:00:30.781Z,43.18
2023-09-09T09:01:30.893Z,39.80
2023-09-09T09:02:30.890Z,46.57
2023-09-09T09:03:30.819Z,43.67
2023-09-09T09:04:31.969Z,42.06
2023-09-09T09:05:30.810Z,42.86
2023-09-09T09:06:30.769Z,48.34
2023-09-09T09:07:30.792Z,44.79
2023-09-09T09:08:30.756Z,41.25
2023-09-09T09:09:30.717Z,46.73
2023-09-09T09:10:31.013Z,44.47
2023-09-09T09:11:30.731Z,43.99
2023-09-09T09:12:30.693Z,43.83
2023-09-09T09:13:30.704Z,43.83
2023-09-09T09:14:30.724Z,40.12
2023-09-09T09:15:30.749Z,44.63
2023-09-09T09:16:30.704Z,41.57
2023-09-09T09:17:30.697Z,42.06
2023-09-09T09:18:30.719Z,43.02
2023-09-09T09:19:31.638Z,41.25
2023-09-09T09:20:30.637Z,46.89
2023-09-09T09:21:30.653Z,42.70
2023-09-09T09:22:30.624Z,43.99
2023-09-09T09:23:30.616Z,43.02
2023-09-09T09:24:30.611Z,45.60
2023-09-09T09:25:30.594Z,47.86
2023-09-09T09:26:30.636Z,48.02
2023-09-09T09:27:30.578Z,44.47
2023-09-09T09:28:30.577Z,41.73
2023-09-09T09:29:30.590Z,43.02
2023-09-09T09:30:30.588Z,43.51
2023-09-09T09:31:30.617Z,40.93
2023-09-09T09:32:30.567Z,46.57
2023-09-09T09:33:30.568Z,45.12
2023-09-09T09:34:30.536Z,48.02
2023-09-09T09:35:30.555Z,48.50
2023-09-09T09:36:30.519Z,46.41
2023-09-09T09:37:30.501Z,47.05
2023-09-09T09:38:30.500Z,49.31
2023-09-09T09:39:30.579Z,46.57
2023-09-09T09:40:30.517Z,47.86
2023-09-09T09:41:30.469Z,45.92
2023-09-09T09:42:31.775Z,45.60
2023-09-09T09:43:30.470Z,40.61
2023-09-09T09:44:30.497Z,39.80
2023-09-09T09:45:30.485Z,40.93
2023-09-09T09:46:31.235Z,50.11
2023-09-09T09:47:31.471Z,47.70
2023-09-09T09:48:30.427Z,45.12
2023-09-09T09:49:30.445Z,45.76
2023-09-09T09:50:30.720Z,48.66
2023-09-09T09:51:30.395Z,45.44
2023-09-09T09:52:30.394Z,41.41
2023-09-09T09:53:30.377Z,44.79
2023-09-09T09:54:31.455Z,41.89
2023-09-09T09:55:30.374Z,43.99
2023-09-09T09:56:30.356Z,45.12
2023-09-09T09:57:30.347Z,39.96
2023-09-09T09:58:30.372Z,44.47
2023-09-09T09:59:30.367Z,49.95
2023-09-09T10:00:30.332Z,43.34
2023-09-09T10:01:30.316Z,45.44
2023-09-09T10:02:30.361Z,45.28
2023-09-09T10:03:30.330Z,47.70
2023-09-09T10:04:30.298Z,44.79
2023-09-09T10:05:30.301Z,46.73
2023-09-09T10:06:31.282Z,48.50
2023-09-09T10:07:30.876Z,43.51
2023-09-09T10:08:30.300Z,48.02
2023-09-09T10:09:30.253Z,47.37
2023-09-09T10:10:30.253Z,46.25
2023-09-09T10:11:30.239Z,40.77
2023-09-09T10:12:46.475Z,40.44
2023-09-09T10:13:32.324Z,47.53
2023-09-09T10:14:30.232Z,45.60
2023-09-09T10:15:30.202Z,44.79
2023-09-09T10:16:30.271Z,48.82
2023-09-09T10:17:30.281Z,44.47
2023-09-09T10:18:30.212Z,45.76
2023-09-09T10:19:30.177Z,44.31
2023-09-09T10:20:30.163Z,42.86
2023-09-09T10:21:41.479Z,44.63
2023-09-09T10:22:32.226Z,45.76
2023-09-09T10:23:30.147Z,45.28
2023-09-09T10:24:30.141Z,43.34
2023-09-09T10:25:30.148Z,44.47
2023-09-09T10:26:30.124Z,46.08
2023-09-09T10:27:30.149Z,44.47
2023-09-09T10:28:30.133Z,46.08
2023-09-09T10:29:30.101Z,45.76
2023-09-09T10:30:30.110Z,43.02
2023-09-09T10:31:30.121Z,46.73
2023-09-09T10:32:30.112Z,44.47
2023-09-09T10:33:30.088Z,39.32
2023-09-09T10:34:30.072Z,43.02
2023-09-09T10:35:30.305Z,43.34
2023-09-09T10:36:30.083Z,40.93
2023-09-09T10:37:30.054Z,41.73
2023-09-09T10:38:30.038Z,40.12
2023-09-09T10:39:30.099Z,39.80
2023-09-09T10:40:30.028Z,44.31
2023-09-09T10:41:31.286Z,41.41
2023-09-09T10:42:30.068Z,41.73
2023-09-09T10:43:29.997Z,39.96
2023-09-09T10:44:30.043Z,47.05
2023-09-09T10:45:30.022Z,43.02
2023-09-09T10:46:30.084Z,38.83
2023-09-09T10:47:30.018Z,39.80
2023-09-09T10:48:29.968Z,38.83
2023-09-09T10:49:30.005Z,39.32
2023-09-09T10:50:30.045Z,40.77
2023-09-09T10:51:30.687Z,43.34
2023-09-09T10:52:30.954Z,43.67
2023-09-09T10:53:29.965Z,40.61
2023-09-09T10:54:29.927Z,38.99
2023-09-09T10:55:29.974Z,46.73
2023-09-09T10:56:29.926Z,43.02
2023-09-09T10:57:29.899Z,38.99
2023-09-09T10:58:29.889Z,39.32
2023-09-09T10:59:29.889Z,46.89
2023-09-09T11:00:29.937Z,41.57
2023-09-09T11:01:29.875Z,42.54
2023-09-09T11:02:29.874Z,45.76
2023-09-09T11:03:29.857Z,43.51
2023-09-09T11:04:29.912Z,42.06
2023-09-09T11:05:29.961Z,43.18
2023-09-09T11:06:29.832Z,41.41
2023-09-09T11:07:29.830Z,42.38
2023-09-09T11:08:29.807Z,39.64
2023-09-09T11:09:29.830Z,40.28
2023-09-09T11:10:29.936Z,47.05
2023-09-09T11:11:29.811Z,43.99
2023-09-09T11:12:29.804Z,39.96
2023-09-09T11:13:29.781Z,42.70
2023-09-09T11:14:29.794Z,42.70
2023-09-09T11:15:29.756Z,42.22
2023-09-09T11:16:29.806Z,38.83
2023-09-09T11:17:29.835Z,47.05
2023-09-09T11:18:29.748Z,43.18
2023-09-09T11:19:29.749Z,41.09
2023-09-09T11:20:29.804Z,39.96
2023-09-09T11:21:29.718Z,42.06
2023-09-09T11:22:30.440Z,41.25
2023-09-09T11:23:30.743Z,42.54
2023-09-09T11:24:29.725Z,42.38
2023-09-09T11:25:29.682Z,44.63
2023-09-09T11:26:29.683Z,40.93
2023-09-09T11:27:29.674Z,44.15
2023-09-09T11:28:29.705Z,39.80
2023-09-09T11:29:36.845Z,41.41
2023-09-09T11:30:31.644Z,45.60
2023-09-09T11:31:29.763Z,43.18
2023-09-09T11:32:29.811Z,40.12
2023-09-09T11:33:29.706Z,39.96
2023-09-09T11:35:03.774Z,44.79
2023-09-09T11:35:29.607Z,42.54
2023-09-09T11:36:29.603Z,41.25
2023-09-09T11:37:30.276Z,39.96
2023-09-09T11:38:30.617Z,46.57
2023-09-09T11:39:29.585Z,39.80
2023-09-09T11:40:29.576Z,40.44
2023-09-09T11:41:29.571Z,41.57
2023-09-09T11:42:29.561Z,42.06
2023-09-09T11:43:29.577Z,38.51
2023-09-09T11:44:29.601Z,38.67
2023-09-09T11:45:29.546Z,40.93
2023-09-09T11:46:29.532Z,37.06
2023-09-09T11:47:29.532Z,38.35
2023-09-09T11:48:29.635Z,42.06
2023-09-09T11:49:29.511Z,37.22
2023-09-09T11:50:29.532Z,41.25
2023-09-09T11:51:29.516Z,40.93
2023-09-09T11:52:29.514Z,40.61
2023-09-09T11:53:29.519Z,39.96
2023-09-09T11:54:29.473Z,44.96
2023-09-09T11:55:29.491Z,39.32
2023-09-09T11:56:29.461Z,39.16
2023-09-09T11:57:29.453Z,47.70
2023-09-09T11:58:29.521Z,45.12
2023-09-09T11:59:29.446Z,40.61
2023-09-09T12:00:29.448Z,40.93
2023-09-09T12:01:29.476Z,46.73
2023-09-09T12:02:29.737Z,40.77
2023-09-09T12:03:29.598Z,40.12
2023-09-09T12:04:29.471Z,41.89
2023-09-09T12:05:29.385Z,41.25
2023-09-09T12:06:29.376Z,39.64
2023-09-09T12:07:29.503Z,42.06
2023-09-09T12:08:29.370Z,39.96
2023-09-09T12:09:29.353Z,38.51
2023-09-09T12:10:29.362Z,42.86
2023-09-09T12:11:29.370Z,40.61
2023-09-09T12:12:29.443Z,39.32
2023-09-09T12:13:29.327Z,44.15
2023-09-09T12:14:29.370Z,41.41
2023-09-09T12:15:29.312Z,39.80
2023-09-09T12:16:29.370Z,41.41
2023-09-09T12:17:29.432Z,40.93
2023-09-09T12:18:29.345Z,40.93
2023-09-09T12:19:29.282Z,39.96
2023-09-09T12:20:29.301Z,41.41
2023-09-09T12:21:29.291Z,40.93
2023-09-09T12:22:29.258Z,43.02
2023-09-09T12:23:29.279Z,45.28
2023-09-09T12:24:29.243Z,44.15
2023-09-09T12:25:29.245Z,40.28
2023-09-09T12:26:29.496Z,43.18
2023-09-09T12:27:29.223Z,39.64
2023-09-09T12:28:29.212Z,43.02
2023-09-09T12:29:29.202Z,40.44
2023-09-09T12:30:29.228Z,41.09
2023-09-09T12:31:29.336Z,38.19
2023-09-09T12:32:29.240Z,39.32
2023-09-09T12:33:29.194Z,39.96
2023-09-09T12:34:29.162Z,40.93
2023-09-09T12:35:29.210Z,39.64
2023-09-09T12:36:29.168Z,41.89
2023-09-09T12:37:29.142Z,40.28
2023-09-09T12:38:29.145Z,38.35
2023-09-09T12:39:29.138Z,40.44
2023-09-09T12:40:29.272Z,39.64
2023-09-09T12:41:29.124Z,42.54
2023-09-09T12:42:29.105Z,39.80
2023-09-09T12:43:29.112Z,41.57
2023-09-09T12:44:29.117Z,39.64
2023-09-09T12:45:29.164Z,43.99
2023-09-09T12:46:29.226Z,41.89
2023-09-09T12:47:29.812Z,42.22
2023-09-09T12:48:29.074Z,40.61
2023-09-09T12:49:29.098Z,42.86
2023-09-09T12:50:29.080Z,41.25
2023-09-09T12:51:29.054Z,44.15
2023-09-09T12:52:29.041Z,46.25